sensor_id;sensor_type;location;lat;lon;timestamp;temperature;humidity
18218;DHT22;9234;49.344;11.120;2023-03-23T00:02:25;8.80;99.90
18218;DHT22;9234;49.344;11.120;2023-03-23T00:04:53;8.80;99.90
18218;DHT22;9234;49.344;11.120;2023-03-23T00:07:23;8.80;99.90
18218;DHT22;9234;49.344;11.120;2023-03-23T00:09:53;8.80;99.90
18218;DHT22;9234;49.344;11.120;2023-03-23T00:12:22;8.80;99.90
18218;DHT22;9234;49.344;11.120;2023-03-23T00:14:54;8.70;99.90
18218;DHT22;9234;49.344;11.120;2023-03-23T00:17:21;8.70;99.90
18218;DHT22;9234;49.344;11.120;2023-03-23T00:19:49;8.70;99.90
18218;DHT22;9234;49.344;11.120;2023-03-23T00:22:18;8.70;99.90
18218;DHT22;9234;49.344;11.120;2023-03-23T00:24:48;8.60;99.90
18218;DHT22;9234;49.344;11.120;2023-03-23T00:27:16;8.60;99.90
18218;DHT22;9234;49.344;11.120;2023-03-23T00:29:44;8.60;99.90
18218;DHT22;9234;49.344;11.120;2023-03-23T00:32:13;8.60;99.90
18218;DHT22;9234;49.344;11.120;2023-03-23T00:34:42;8.50;99.90
18218;DHT22;9234;49.344;11.120;2023-03-23T00:37:11;8.50;99.90
18218;DHT22;9234;49.344;11.120;2023-03-23T00:39:42;8.50;99.90
18218;DHT22;9234;49.344;11.120;2023-03-23T00:42:13;8.50;99.90
18218;DHT22;9234;49.344;11.120;2023-03-23T00:44:43;8.50;99.90
18218;DHT22;9234;49.344;11.120;2023-03-23T00:47:10;8.50;99.90
18218;DHT22;9234;49.344;11.120;2023-03-23T00:49:38;8.50;99.90
18218;DHT22;9234;49.344;11.120;2023-03-23T00:52:07;8.60;99.90
18218;DHT22;9234;49.344;11.120;2023-03-23T00:54:34;8.60;99.90
18218;DHT22;9234;49.344;11.120;2023-03-23T00:57:04;8.60;99.90
18218;DHT22;9234;49.344;11.120;2023-03-23T00:59:33;8.60;99.90
18218;DHT22;9234;49.344;11.120;2023-03-23T01:02:00;8.60;99.90
18218;DHT22;9234;49.344;11.120;2023-03-23T01:04:27;8.60;99.90
18218;DHT22;9234;49.344;11.120;2023-03-23T01:06:57;8.60;99.90
18218;DHT22;9234;49.344;11.120;2023-03-23T01:09:26;8.70;99.90
18218;DHT22;9234;49.344;11.120;2023-03-23T01:11:54;8.70;99.90
18218;DHT22;9234;49.344;11.120;2023-03-23T01:14:23;8.70;99.90
18218;DHT22;9234;49.344;11.120;2023-03-23T01:16:52;8.80;99.90
18218;DHT22;9234;49.344;11.120;2023-03-23T01:19:19;8.80;99.90
18218;DHT22;9234;49.344;11.120;2023-03-23T01:21:46;8.90;99.90
18218;DHT22;9234;49.344;11.120;2023-03-23T01:24:13;9.00;99.90
18218;DHT22;9234;49.344;11.120;2023-03-23T01:26:41;9.10;99.90
18218;DHT22;9234;49.344;11.120;2023-03-23T01:29:08;9.10;99.90
18218;DHT22;9234;49.344;11.120;2023-03-23T01:31:35;9.20;99.90
18218;DHT22;9234;49.344;11.120;2023-03-23T01:34:06;9.30;99.90
18218;DHT22;9234;49.344;11.120;2023-03-23T01:36:33;9.30;99.90
18218;DHT22;9234;49.344;11.120;2023-03-23T01:39:04;9.40;99.90
18218;DHT22;9234;49.344;11.120;2023-03-23T01:41:33;9.50;99.90
18218;DHT22;9234;49.344;11.120;2023-03-23T01:44:07;9.50;99.90
18218;DHT22;9234;49.344;11.120;2023-03-23T01:47:03;9.60;99.90
18218;DHT22;9234;49.344;11.120;2023-03-23T01:49:37;9.70;99.90
18218;DHT22;9234;49.344;11.120;2023-03-23T01:52:12;9.70;99.90
18218;DHT22;9234;49.344;11.120;2023-03-23T01:54:44;9.80;99.90
18218;DHT22;9234;49.344;11.120;2023-03-23T01:57:15;9.90;99.90
18218;DHT22;9234;49.344;11.120;2023-03-23T01:59:47;9.90;99.90
18218;DHT22;9234;49.344;11.120;2023-03-23T02:02:22;10.00;99.90
18218;DHT22;9234;49.344;11.120;2023-03-23T02:04:57;10.10;99.90
18218;DHT22;9234;49.344;11.120;2023-03-23T02:07:31;10.10;99.90
18218;DHT22;9234;49.344;11.120;2023-03-23T02:10:01;10.20;99.90
18218;DHT22;9234;49.344;11.120;2023-03-23T02:12:32;10.30;99.90
18218;DHT22;9234;49.344;11.120;2023-03-23T02:15:00;10.30;99.90
18218;DHT22;9234;49.344;11.120;2023-03-23T02:17:35;10.40;99.90
18218;DHT22;9234;49.344;11.120;2023-03-23T02:20:31;10.40;99.90
18218;DHT22;9234;49.344;11.120;2023-03-23T02:23:36;10.50;99.90
18218;DHT22;9234;49.344;11.120;2023-03-23T02:26:29;10.50;99.90
18218;DHT22;9234;49.344;11.120;2023-03-23T02:29:12;10.50;99.90
18218;DHT22;9234;49.344;11.120;2023-03-23T02:32:31;10.60;99.90
18218;DHT22;9234;49.344;11.120;2023-03-23T02:35:17;10.60;99.90
18218;DHT22;9234;49.344;11.120;2023-03-23T02:37:50;10.70;99.90
18218;DHT22;9234;49.344;11.120;2023-03-23T02:40:24;10.70;99.90
18218;DHT22;9234;49.344;11.120;2023-03-23T02:42:55;10.70;99.90
18218;DHT22;9234;49.344;11.120;2023-03-23T02:45:27;10.70;99.90
18218;DHT22;9234;49.344;11.120;2023-03-23T02:47:57;10.80;99.90
18218;DHT22;9234;49.344;11.120;2023-03-23T02:50:30;10.80;99.90
18218;DHT22;9234;49.344;11.120;2023-03-23T02:53:04;10.80;99.90
18218;DHT22;9234;49.344;11.120;2023-03-23T02:55:34;10.80;99.90
18218;DHT22;9234;49.344;11.120;2023-03-23T02:58:12;10.80;99.90
18218;DHT22;9234;49.344;11.120;2023-03-23T03:00:42;10.90;99.90
18218;DHT22;9234;49.344;11.120;2023-03-23T03:03:12;10.90;99.90
18218;DHT22;9234;49.344;11.120;2023-03-23T03:05:51;10.90;99.90
18218;DHT22;9234;49.344;11.120;2023-03-23T03:08:31;10.90;99.90
18218;DHT22;9234;49.344;11.120;2023-03-23T03:11:09;10.90;99.90
18218;DHT22;9234;49.344;11.120;2023-03-23T03:13:46;11.00;99.90
18218;DHT22;9234;49.344;11.120;2023-03-23T03:16:23;11.00;99.90
18218;DHT22;9234;49.344;11.120;2023-03-23T03:18:57;11.00;99.90
18218;DHT22;9234;49.344;11.120;2023-03-23T03:21:32;11.10;99.90
18218;DHT22;9234;49.344;11.120;2023-03-23T03:24:04;11.10;99.90
18218;DHT22;9234;49.344;11.120;2023-03-23T03:26:38;11.00;99.90
18218;DHT22;9234;49.344;11.120;2023-03-23T03:29:32;11.10;99.90
18218;DHT22;9234;49.344;11.120;2023-03-23T03:32:03;11.10;99.90
18218;DHT22;9234;49.344;11.120;2023-03-23T03:34:33;11.10;99.90
18218;DHT22;9234;49.344;11.120;2023-03-23T03:37:05;11.10;99.90
18218;DHT22;9234;49.344;11.120;2023-03-23T03:39:35;11.20;99.90
18218;DHT22;9234;49.344;11.120;2023-03-23T03:42:04;11.20;99.90
18218;DHT22;9234;49.344;11.120;2023-03-23T03:44:31;11.20;99.90
18218;DHT22;9234;49.344;11.120;2023-03-23T03:46:59;11.20;99.90
18218;DHT22;9234;49.344;11.120;2023-03-23T03:49:27;11.10;99.90
18218;DHT22;9234;49.344;11.120;2023-03-23T03:51:55;11.10;99.90
18218;DHT22;9234;49.344;11.120;2023-03-23T03:54:35;11.10;99.90
18218;DHT22;9234;49.344;11.120;2023-03-23T03:57:03;11.10;99.90
18218;DHT22;9234;49.344;11.120;2023-03-23T04:00:03;11.20;99.90
18218;DHT22;9234;49.344;11.120;2023-03-23T04:02:45;11.20;99.90
18218;DHT22;9234;49.344;11.120;2023-03-23T04:05:22;11.10;99.90
18218;DHT22;9234;49.344;11.120;2023-03-23T04:07:50;11.10;99.90
18218;DHT22;9234;49.344;11.120;2023-03-23T04:10:20;11.10;99.90
18218;DHT22;9234;49.344;11.120;2023-03-23T04:12:52;11.10;99.90
18218;DHT22;9234;49.344;11.120;2023-03-23T04:15:38;11.10;99.90
18218;DHT22;9234;49.344;11.120;2023-03-23T04:18:06;11.20;99.90
18218;DHT22;9234;49.344;11.120;2023-03-23T04:20:35;11.20;99.90
18218;DHT22;9234;49.344;11.120;2023-03-23T04:23:04;11.20;99.90
18218;DHT22;9234;49.344;11.120;2023-03-23T04:25:34;11.20;99.90
18218;DHT22;9234;49.344;11.120;2023-03-23T04:28:03;11.20;99.90
18218;DHT22;9234;49.344;11.120;2023-03-23T04:30:38;11.20;99.90
18218;DHT22;9234;49.344;11.120;2023-03-23T04:33:11;11.30;99.90
18218;DHT22;9234;49.344;11.120;2023-03-23T04:35:41;11.30;99.90
18218;DHT22;9234;49.344;11.120;2023-03-23T04:38:22;11.30;99.90
18218;DHT22;9234;49.344;11.120;2023-03-23T04:40:58;11.30;99.90
18218;DHT22;9234;49.344;11.120;2023-03-23T04:43:47;11.30;99.90
18218;DHT22;9234;49.344;11.120;2023-03-23T04:46:26;11.30;99.90
18218;DHT22;9234;49.344;11.120;2023-03-23T04:48:57;11.30;99.90
18218;DHT22;9234;49.344;11.120;2023-03-23T04:51:30;11.30;99.90
18218;DHT22;9234;49.344;11.120;2023-03-23T04:54:10;11.40;99.90
18218;DHT22;9234;49.344;11.120;2023-03-23T04:56:41;11.40;99.90
18218;DHT22;9234;49.344;11.120;2023-03-23T04:59:13;11.40;99.90
18218;DHT22;9234;49.344;11.120;2023-03-23T05:02:06;11.40;99.90
18218;DHT22;9234;49.344;11.120;2023-03-23T05:04:34;11.40;99.90
18218;DHT22;9234;49.344;11.120;2023-03-23T05:07:13;11.40;99.90
18218;DHT22;9234;49.344;11.120;2023-03-23T05:09:47;11.50;99.90
18218;DHT22;9234;49.344;11.120;2023-03-23T05:12:18;11.50;99.90
18218;DHT22;9234;49.344;11.120;2023-03-23T05:14:53;11.50;99.90
18218;DHT22;9234;49.344;11.120;2023-03-23T05:17:24;11.50;99.90
18218;DHT22;9234;49.344;11.120;2023-03-23T05:19:55;11.60;99.90
18218;DHT22;9234;49.344;11.120;2023-03-23T05:22:39;11.60;99.90
18218;DHT22;9234;49.344;11.120;2023-03-23T05:25:08;11.60;99.90
18218;DHT22;9234;49.344;11.120;2023-03-23T05:27:40;11.70;99.90
18218;DHT22;9234;49.344;11.120;2023-03-23T05:30:21;11.70;99.90
18218;DHT22;9234;49.344;11.120;2023-03-23T05:32:49;11.70;99.90
18218;DHT22;9234;49.344;11.120;2023-03-23T05:35:26;11.70;99.90
18218;DHT22;9234;49.344;11.120;2023-03-23T05:37:53;11.80;99.90
18218;DHT22;9234;49.344;11.120;2023-03-23T05:40:21;11.80;99.90
18218;DHT22;9234;49.344;11.120;2023-03-23T05:43:12;11.80;99.90
18218;DHT22;9234;49.344;11.120;2023-03-23T05:45:49;11.90;99.90
18218;DHT22;9234;49.344;11.120;2023-03-23T05:48:16;11.90;99.90
18218;DHT22;9234;49.344;11.120;2023-03-23T05:50:44;11.90;99.90
18218;DHT22;9234;49.344;11.120;2023-03-23T05:53:11;12.00;99.90
18218;DHT22;9234;49.344;11.120;2023-03-23T05:55:39;12.00;99.90
18218;DHT22;9234;49.344;11.120;2023-03-23T05:58:29;12.10;99.90
18218;DHT22;9234;49.344;11.120;2023-03-23T06:00:57;12.10;99.90
18218;DHT22;9234;49.344;11.120;2023-03-23T06:03:28;12.20;99.90
18218;DHT22;9234;49.344;11.120;2023-03-23T06:06:16;12.20;99.90
18218;DHT22;9234;49.344;11.120;2023-03-23T06:08:51;12.30;99.90
18218;DHT22;9234;49.344;11.120;2023-03-23T06:11:28;12.30;99.90
18218;DHT22;9234;49.344;11.120;2023-03-23T06:14:17;12.40;99.90
18218;DHT22;9234;49.344;11.120;2023-03-23T06:16:45;12.40;99.90
18218;DHT22;9234;49.344;11.120;2023-03-23T06:19:14;12.40;99.90
18218;DHT22;9234;49.344;11.120;2023-03-23T06:21:50;12.50;99.90
18218;DHT22;9234;49.344;11.120;2023-03-23T06:24:53;12.50;99.90
18218;DHT22;9234;49.344;11.120;2023-03-23T06:27:27;12.60;99.90
18218;DHT22;9234;49.344;11.120;2023-03-23T06:29:58;12.70;99.90
18218;DHT22;9234;49.344;11.120;2023-03-23T06:32:27;12.70;99.90
18218;DHT22;9234;49.344;11.120;2023-03-23T06:34:57;12.80;99.90
18218;DHT22;9234;49.344;11.120;2023-03-23T06:37:52;12.80;99.90
18218;DHT22;9234;49.344;11.120;2023-03-23T06:40:30;12.90;99.90
18218;DHT22;9234;49.344;11.120;2023-03-23T06:42:57;12.90;99.90
18218;DHT22;9234;49.344;11.120;2023-03-23T06:45:30;12.90;99.90
18218;DHT22;9234;49.344;11.120;2023-03-23T06:48:23;13.00;99.90
18218;DHT22;9234;49.344;11.120;2023-03-23T06:50:50;13.00;99.90
18218;DHT22;9234;49.344;11.120;2023-03-23T06:53:19;13.00;99.90
18218;DHT22;9234;49.344;11.120;2023-03-23T06:55:48;13.10;99.90
18218;DHT22;9234;49.344;11.120;2023-03-23T06:58:17;13.10;99.90
18218;DHT22;9234;49.344;11.120;2023-03-23T07:00:45;13.20;99.90
18218;DHT22;9234;49.344;11.120;2023-03-23T07:03:15;13.20;99.90
18218;DHT22;9234;49.344;11.120;2023-03-23T07:05:46;13.30;99.90
18218;DHT22;9234;49.344;11.120;2023-03-23T07:08:14;13.30;99.90
18218;DHT22;9234;49.344;11.120;2023-03-23T07:10:47;13.40;99.90
18218;DHT22;9234;49.344;11.120;2023-03-23T07:13:16;13.50;99.90
18218;DHT22;9234;49.344;11.120;2023-03-23T07:15:50;13.60;99.90
18218;DHT22;9234;49.344;11.120;2023-03-23T07:18:18;13.70;99.90
18218;DHT22;9234;49.344;11.120;2023-03-23T07:20:48;13.80;99.90
18218;DHT22;9234;49.344;11.120;2023-03-23T07:23:17;14.00;99.90
18218;DHT22;9234;49.344;11.120;2023-03-23T07:25:55;14.10;99.90
18218;DHT22;9234;49.344;11.120;2023-03-23T07:28:29;14.30;99.90
18218;DHT22;9234;49.344;11.120;2023-03-23T07:31:04;14.30;99.90
18218;DHT22;9234;49.344;11.120;2023-03-23T07:33:33;14.50;99.90
18218;DHT22;9234;49.344;11.120;2023-03-23T07:36:02;14.60;99.90
18218;DHT22;9234;49.344;11.120;2023-03-23T07:38:29;14.60;99.90
18218;DHT22;9234;49.344;11.120;2023-03-23T07:40:58;14.70;99.90
18218;DHT22;9234;49.344;11.120;2023-03-23T07:43:25;14.80;99.90
18218;DHT22;9234;49.344;11.120;2023-03-23T07:46:13;14.90;99.90
18218;DHT22;9234;49.344;11.120;2023-03-23T07:49:01;14.90;99.90
18218;DHT22;9234;49.344;11.120;2023-03-23T07:51:36;14.90;99.90
18218;DHT22;9234;49.344;11.120;2023-03-23T07:54:06;14.90;99.60
18218;DHT22;9234;49.344;11.120;2023-03-23T07:56:57;15.00;99.60
18218;DHT22;9234;49.344;11.120;2023-03-23T07:59:27;15.00;99.60
18218;DHT22;9234;49.344;11.120;2023-03-23T08:01:58;15.10;99.70
18218;DHT22;9234;49.344;11.120;2023-03-23T08:04:33;15.10;99.80
18218;DHT22;9234;49.344;11.120;2023-03-23T08:07:21;15.20;99.50
18218;DHT22;9234;49.344;11.120;2023-03-23T08:09:59;15.30;99.50
18218;DHT22;9234;49.344;11.120;2023-03-23T08:12:45;15.40;99.60
18218;DHT22;9234;49.344;11.120;2023-03-23T08:15:31;15.50;99.50
18218;DHT22;9234;49.344;11.120;2023-03-23T08:18:23;15.50;99.80
18218;DHT22;9234;49.344;11.120;2023-03-23T08:21:05;15.50;99.30
18218;DHT22;9234;49.344;11.120;2023-03-23T08:23:53;15.50;99.60
18218;DHT22;9234;49.344;11.120;2023-03-23T08:26:39;15.50;99.60
18218;DHT22;9234;49.344;11.120;2023-03-23T08:29:26;15.50;99.80
18218;DHT22;9234;49.344;11.120;2023-03-23T08:32:14;15.50;99.50
18218;DHT22;9234;49.344;11.120;2023-03-23T08:34:53;15.40;99.70
18218;DHT22;9234;49.344;11.120;2023-03-23T08:37:49;15.40;99.70
18218;DHT22;9234;49.344;11.120;2023-03-23T08:40:44;15.30;99.90
18218;DHT22;9234;49.344;11.120;2023-03-23T08:43:11;15.30;99.90
18218;DHT22;9234;49.344;11.120;2023-03-23T08:46:07;15.20;99.90
18218;DHT22;9234;49.344;11.120;2023-03-23T08:49:06;15.10;99.90
18218;DHT22;9234;49.344;11.120;2023-03-23T08:51:57;15.10;99.90
18218;DHT22;9234;49.344;11.120;2023-03-23T08:54:44;15.00;99.90
18218;DHT22;9234;49.344;11.120;2023-03-23T08:57:48;15.00;99.90
18218;DHT22;9234;49.344;11.120;2023-03-23T09:00:50;15.00;99.90
18218;DHT22;9234;49.344;11.120;2023-03-23T09:03:37;15.00;99.90
18218;DHT22;9234;49.344;11.120;2023-03-23T09:06:24;15.00;99.90
18218;DHT22;9234;49.344;11.120;2023-03-23T09:08:53;14.90;99.90
18218;DHT22;9234;49.344;11.120;2023-03-23T09:11:22;14.90;99.90
18218;DHT22;9234;49.344;11.120;2023-03-23T09:13:49;15.00;99.90
18218;DHT22;9234;49.344;11.120;2023-03-23T09:16:16;15.00;99.90
18218;DHT22;9234;49.344;11.120;2023-03-23T09:18:43;15.00;99.90
18218;DHT22;9234;49.344;11.120;2023-03-23T09:21:11;15.10;99.90
18218;DHT22;9234;49.344;11.120;2023-03-23T09:23:39;15.10;99.90
18218;DHT22;9234;49.344;11.120;2023-03-23T09:26:11;15.20;99.90
18218;DHT22;9234;49.344;11.120;2023-03-23T09:28:38;15.20;99.90
18218;DHT22;9234;49.344;11.120;2023-03-23T09:31:05;15.30;99.90
18218;DHT22;9234;49.344;11.120;2023-03-23T09:33:33;15.30;99.90
18218;DHT22;9234;49.344;11.120;2023-03-23T09:36:00;15.40;99.90
18218;DHT22;9234;49.344;11.120;2023-03-23T09:38:30;15.50;99.90
18218;DHT22;9234;49.344;11.120;2023-03-23T09:41:04;15.50;99.90
18218;DHT22;9234;49.344;11.120;2023-03-23T09:43:57;15.60;99.90
18218;DHT22;9234;49.344;11.120;2023-03-23T09:46:46;15.60;99.90
18218;DHT22;9234;49.344;11.120;2023-03-23T09:49:23;15.70;99.90
18218;DHT22;9234;49.344;11.120;2023-03-23T09:51:56;15.80;99.90
18218;DHT22;9234;49.344;11.120;2023-03-23T09:54:27;15.90;99.90
18218;DHT22;9234;49.344;11.120;2023-03-23T09:56:58;16.00;99.90
18218;DHT22;9234;49.344;11.120;2023-03-23T09:59:31;16.20;99.90
18218;DHT22;9234;49.344;11.120;2023-03-23T10:02:12;16.30;99.90
18218;DHT22;9234;49.344;11.120;2023-03-23T10:04:45;16.40;99.90
18218;DHT22;9234;49.344;11.120;2023-03-23T10:07:17;16.50;99.90
18218;DHT22;9234;49.344;11.120;2023-03-23T10:09:49;16.60;99.90
18218;DHT22;9234;49.344;11.120;2023-03-23T10:12:27;16.70;99.90
18218;DHT22;9234;49.344;11.120;2023-03-23T10:15:15;16.90;99.90
18218;DHT22;9234;49.344;11.120;2023-03-23T10:17:48;16.90;99.90
18218;DHT22;9234;49.344;11.120;2023-03-23T10:20:32;17.00;99.90
18218;DHT22;9234;49.344;11.120;2023-03-23T10:26:31;17.00;99.60
18218;DHT22;9234;49.344;11.120;2023-03-23T10:29:12;17.00;99.00
18218;DHT22;9234;49.344;11.120;2023-03-23T10:31:46;17.00;98.40
18218;DHT22;9234;49.344;11.120;2023-03-23T10:34:21;16.90;98.50
18218;DHT22;9234;49.344;11.120;2023-03-23T10:36:56;16.80;96.90
18218;DHT22;9234;49.344;11.120;2023-03-23T10:39:33;16.70;97.20
18218;DHT22;9234;49.344;11.120;2023-03-23T10:42:10;16.60;97.00
18218;DHT22;9234;49.344;11.120;2023-03-23T10:44:37;16.60;96.70
18218;DHT22;9234;49.344;11.120;2023-03-23T10:47:07;16.50;96.90
18218;DHT22;9234;49.344;11.120;2023-03-23T10:49:40;16.50;97.20
18218;DHT22;9234;49.344;11.120;2023-03-23T10:52:24;16.40;97.30
18218;DHT22;9234;49.344;11.120;2023-03-23T10:54:58;16.30;97.50
18218;DHT22;9234;49.344;11.120;2023-03-23T10:57:31;16.30;97.50
18218;DHT22;9234;49.344;11.120;2023-03-23T11:00:02;16.30;98.00
18218;DHT22;9234;49.344;11.120;2023-03-23T11:02:41;16.30;98.00
18218;DHT22;9234;49.344;11.120;2023-03-23T11:05:17;16.20;98.20
18218;DHT22;9234;49.344;11.120;2023-03-23T11:07:52;16.20;98.20
18218;DHT22;9234;49.344;11.120;2023-03-23T11:10:24;16.30;98.10
18218;DHT22;9234;49.344;11.120;2023-03-23T11:12:56;16.20;98.30
18218;DHT22;9234;49.344;11.120;2023-03-23T11:15:30;16.30;98.30
18218;DHT22;9234;49.344;11.120;2023-03-23T11:18:03;16.30;98.40
18218;DHT22;9234;49.344;11.120;2023-03-23T11:20:35;16.20;98.60
18218;DHT22;9234;49.344;11.120;2023-03-23T11:23:17;16.20;98.70
18218;DHT22;9234;49.344;11.120;2023-03-23T11:25:54;16.20;98.60
18218;DHT22;9234;49.344;11.120;2023-03-23T11:28:29;16.20;98.50
18218;DHT22;9234;49.344;11.120;2023-03-23T11:31:01;16.20;98.70
18218;DHT22;9234;49.344;11.120;2023-03-23T11:33:38;16.30;99.00
18218;DHT22;9234;49.344;11.120;2023-03-23T11:36:14;16.40;98.70
18218;DHT22;9234;49.344;11.120;2023-03-23T11:38:43;16.40;98.30
18218;DHT22;9234;49.344;11.120;2023-03-23T11:41:12;16.40;98.30
18218;DHT22;9234;49.344;11.120;2023-03-23T11:43:46;16.30;98.50
18218;DHT22;9234;49.344;11.120;2023-03-23T11:46:36;16.30;98.70
18218;DHT22;9234;49.344;11.120;2023-03-23T11:49:15;16.30;98.90
18218;DHT22;9234;49.344;11.120;2023-03-23T11:51:51;16.30;98.80
18218;DHT22;9234;49.344;11.120;2023-03-23T11:54:28;16.30;98.90
18218;DHT22;9234;49.344;11.120;2023-03-23T11:56:58;16.30;99.20
18218;DHT22;9234;49.344;11.120;2023-03-23T11:59:32;16.40;99.20
18218;DHT22;9234;49.344;11.120;2023-03-23T12:02:16;16.50;99.00
18218;DHT22;9234;49.344;11.120;2023-03-23T12:05:25;16.50;99.10
18218;DHT22;9234;49.344;11.120;2023-03-23T12:08:15;16.50;99.00
18218;DHT22;9234;49.344;11.120;2023-03-23T12:10:55;16.50;99.00
18218;DHT22;9234;49.344;11.120;2023-03-23T12:13:50;16.50;98.80
18218;DHT22;9234;49.344;11.120;2023-03-23T12:16:33;16.40;98.80
18218;DHT22;9234;49.344;11.120;2023-03-23T12:19:21;16.30;99.10
18218;DHT22;9234;49.344;11.120;2023-03-23T12:22:06;16.30;99.40
18218;DHT22;9234;49.344;11.120;2023-03-23T12:24:52;16.30;99.30
18218;DHT22;9234;49.344;11.120;2023-03-23T12:27:33;16.20;99.80
18218;DHT22;9234;49.344;11.120;2023-03-23T12:30:20;16.30;99.40
18218;DHT22;9234;49.344;11.120;2023-03-23T12:33:02;16.30;99.50
18218;DHT22;9234;49.344;11.120;2023-03-23T12:35:54;16.40;99.20
18218;DHT22;9234;49.344;11.120;2023-03-23T12:42:03;16.90;98.70
18218;DHT22;9234;49.344;11.120;2023-03-23T12:44:43;17.10;97.80
18218;DHT22;9234;49.344;11.120;2023-03-23T12:47:24;17.10;97.80
18218;DHT22;9234;49.344;11.120;2023-03-23T12:50:03;17.10;97.80
18218;DHT22;9234;49.344;11.120;2023-03-23T12:52:43;17.10;97.90
18218;DHT22;9234;49.344;11.120;2023-03-23T12:55:23;17.10;97.90
18218;DHT22;9234;49.344;11.120;2023-03-23T12:58:02;17.00;97.80
18218;DHT22;9234;49.344;11.120;2023-03-23T13:00:46;17.00;98.10
18218;DHT22;9234;49.344;11.120;2023-03-23T13:03:24;17.00;97.80
18218;DHT22;9234;49.344;11.120;2023-03-23T13:06:04;17.00;98.00
18218;DHT22;9234;49.344;11.120;2023-03-23T13:08:49;16.90;98.20
18218;DHT22;9234;49.344;11.120;2023-03-23T13:11:28;17.00;98.40
18218;DHT22;9234;49.344;11.120;2023-03-23T13:14:08;16.90;98.10
18218;DHT22;9234;49.344;11.120;2023-03-23T13:16:49;16.90;98.20
18218;DHT22;9234;49.344;11.120;2023-03-23T13:19:25;16.90;98.40
18218;DHT22;9234;49.344;11.120;2023-03-23T13:22:04;16.90;98.80
18218;DHT22;9234;49.344;11.120;2023-03-23T13:24:46;16.90;98.90
18218;DHT22;9234;49.344;11.120;2023-03-23T13:27:23;16.90;98.70
18218;DHT22;9234;49.344;11.120;2023-03-23T13:29:53;16.90;98.50
18218;DHT22;9234;49.344;11.120;2023-03-23T13:32:34;16.90;98.90
18218;DHT22;9234;49.344;11.120;2023-03-23T13:35:04;17.00;98.80
18218;DHT22;9234;49.344;11.120;2023-03-23T13:37:43;16.90;98.20
18218;DHT22;9234;49.344;11.120;2023-03-23T13:40:24;16.90;98.50
18218;DHT22;9234;49.344;11.120;2023-03-23T13:42:57;16.90;98.70
18218;DHT22;9234;49.344;11.120;2023-03-23T13:45:36;16.90;98.70
18218;DHT22;9234;49.344;11.120;2023-03-23T13:48:20;17.10;98.80
18218;DHT22;9234;49.344;11.120;2023-03-23T13:50:54;17.30;98.70
18218;DHT22;9234;49.344;11.120;2023-03-23T13:53:26;17.50;98.20
18218;DHT22;9234;49.344;11.120;2023-03-23T13:56:16;17.60;98.20
18218;DHT22;9234;49.344;11.120;2023-03-23T13:58:48;17.80;97.90
18218;DHT22;9234;49.344;11.120;2023-03-23T14:01:19;17.90;97.00
18218;DHT22;9234;49.344;11.120;2023-03-23T14:04:02;17.90;97.30
18218;DHT22;9234;49.344;11.120;2023-03-23T14:06:34;18.00;97.50
18218;DHT22;9234;49.344;11.120;2023-03-23T14:09:10;18.10;97.10
18218;DHT22;9234;49.344;11.120;2023-03-23T14:11:50;18.10;96.70
18218;DHT22;9234;49.344;11.120;2023-03-23T14:14:28;18.00;96.70
18218;DHT22;9234;49.344;11.120;2023-03-23T14:17:06;17.90;96.90
18218;DHT22;9234;49.344;11.120;2023-03-23T14:19:38;17.90;97.10
18218;DHT22;9234;49.344;11.120;2023-03-23T14:22:18;18.00;97.40
18218;DHT22;9234;49.344;11.120;2023-03-23T14:24:46;18.00;97.20
18218;DHT22;9234;49.344;11.120;2023-03-23T14:27:15;18.00;97.00
18218;DHT22;9234;49.344;11.120;2023-03-23T14:29:57;17.90;96.30
18218;DHT22;9234;49.344;11.120;2023-03-23T14:32:28;17.80;96.60
18218;DHT22;9234;49.344;11.120;2023-03-23T14:34:59;17.80;96.80
18218;DHT22;9234;49.344;11.120;2023-03-23T14:37:31;17.80;96.90
18218;DHT22;9234;49.344;11.120;2023-03-23T14:40:01;17.70;96.40
18218;DHT22;9234;49.344;11.120;2023-03-23T14:42:33;17.60;96.60
18218;DHT22;9234;49.344;11.120;2023-03-23T14:45:05;17.50;96.90
18218;DHT22;9234;49.344;11.120;2023-03-23T14:47:35;17.60;97.00
18218;DHT22;9234;49.344;11.120;2023-03-23T14:50:07;17.60;97.00
18218;DHT22;9234;49.344;11.120;2023-03-23T14:52:50;17.60;97.00
18218;DHT22;9234;49.344;11.120;2023-03-23T14:55:19;17.70;96.80
18218;DHT22;9234;49.344;11.120;2023-03-23T14:57:48;17.60;96.70
18218;DHT22;9234;49.344;11.120;2023-03-23T15:00:21;17.60;96.80
18218;DHT22;9234;49.344;11.120;2023-03-23T15:02:53;17.50;96.80
18218;DHT22;9234;49.344;11.120;2023-03-23T15:05:27;17.50;97.00
18218;DHT22;9234;49.344;11.120;2023-03-23T15:08:01;17.50;97.20
18218;DHT22;9234;49.344;11.120;2023-03-23T15:10:31;17.50;97.20
18218;DHT22;9234;49.344;11.120;2023-03-23T15:12:59;17.50;97.40
18218;DHT22;9234;49.344;11.120;2023-03-23T15:15:30;17.50;97.10
18218;DHT22;9234;49.344;11.120;2023-03-23T15:18:00;17.50;97.10
18218;DHT22;9234;49.344;11.120;2023-03-23T15:20:31;17.40;97.10
18218;DHT22;9234;49.344;11.120;2023-03-23T15:23:15;17.30;97.30
18218;DHT22;9234;49.344;11.120;2023-03-23T15:25:49;17.30;97.40
18218;DHT22;9234;49.344;11.120;2023-03-23T15:28:19;17.30;97.40
18218;DHT22;9234;49.344;11.120;2023-03-23T15:30:52;17.20;97.50
18218;DHT22;9234;49.344;11.120;2023-03-23T15:33:21;17.20;97.60
18218;DHT22;9234;49.344;11.120;2023-03-23T15:35:53;17.10;97.70
18218;DHT22;9234;49.344;11.120;2023-03-23T15:38:23;17.10;97.90
18218;DHT22;9234;49.344;11.120;2023-03-23T15:40:53;17.00;98.10
18218;DHT22;9234;49.344;11.120;2023-03-23T15:43:25;16.90;98.10
18218;DHT22;9234;49.344;11.120;2023-03-23T15:45:57;16.90;98.20
18218;DHT22;9234;49.344;11.120;2023-03-23T15:48:29;16.80;98.30
18218;DHT22;9234;49.344;11.120;2023-03-23T15:50:57;16.80;98.50
18218;DHT22;9234;49.344;11.120;2023-03-23T15:53:31;16.80;98.60
18218;DHT22;9234;49.344;11.120;2023-03-23T15:56:01;16.80;98.80
18218;DHT22;9234;49.344;11.120;2023-03-23T15:58:31;16.80;99.00
18218;DHT22;9234;49.344;11.120;2023-03-23T16:01:04;16.70;99.00
18218;DHT22;9234;49.344;11.120;2023-03-23T16:03:38;16.70;99.20
18218;DHT22;9234;49.344;11.120;2023-03-23T16:06:10;16.70;99.40
18218;DHT22;9234;49.344;11.120;2023-03-23T16:08:51;16.60;99.50
18218;DHT22;9234;49.344;11.120;2023-03-23T16:11:22;16.60;99.50
18218;DHT22;9234;49.344;11.120;2023-03-23T16:13:51;16.60;99.60
18218;DHT22;9234;49.344;11.120;2023-03-23T16:16:24;16.50;99.70
18218;DHT22;9234;49.344;11.120;2023-03-23T16:18:54;16.50;99.90
18218;DHT22;9234;49.344;11.120;2023-03-23T16:21:22;16.40;99.90
18218;DHT22;9234;49.344;11.120;2023-03-23T16:23:51;16.40;99.90
18218;DHT22;9234;49.344;11.120;2023-03-23T16:26:19;16.40;99.90
18218;DHT22;9234;49.344;11.120;2023-03-23T16:28:47;16.30;99.90
18218;DHT22;9234;49.344;11.120;2023-03-23T16:31:17;16.30;99.90